Time;durP1;ratioP1;P1;durP2;ratioP2;P2;SDS_P1;SDS_P2;PMS_P1;PMS_P2;Temp;Humidity;BMP_temperature;BMP_pressure;BME280_temperature;BME280_humidity;BME280_pressure;Samples;Min_cycle;Max_cycle;Signal;HPM_P1;HPM_P2
2023/04/24 00:01:12;;;;;;;12.60;7.43;;;;;;;9.10;100.00;99888.47;5010988;28;20054;-71
2023/04/24 00:03:38;;;;;;;11.85;7.95;;;;;;;9.10;100.00;99885.75;4998220;28;20117;-70
2023/04/24 00:06:06;;;;;;;12.50;8.77;;;;;;;9.09;100.00;99877.72;4989689;28;20336;-71
2023/04/24 00:08:32;;;;;;;17.90;9.32;;;;;;;9.07;100.00;99877.88;4989928;28;20041;-71
2023/04/24 00:10:57;;;;;;;14.30;9.30;;;;;;;9.08;100.00;99881.44;4997597;28;20042;-71
2023/04/24 00:13:23;;;;;;;13.63;9.50;;;;;;;9.09;100.00;99888.56;4992238;28;20045;-70
2023/04/24 00:15:48;;;;;;;12.25;9.25;;;;;;;9.07;100.00;99885.13;5009888;28;20109;-71
2023/04/24 00:18:14;;;;;;;15.05;10.35;;;;;;;9.06;100.00;99878.84;4997562;28;20593;-71
2023/04/24 00:20:39;;;;;;;19.52;11.05;;;;;;;9.07;100.00;99877.88;4990148;28;20050;-70
2023/04/24 00:23:05;;;;;;;18.25;10.80;;;;;;;9.09;100.00;99883.16;4989558;28;20030;-71
2023/04/24 00:25:30;;;;;;;17.15;10.63;;;;;;;9.05;100.00;99888.00;4991256;28;20046;-72
2023/04/24 00:27:55;;;;;;;21.58;11.40;;;;;;;9.07;100.00;99893.28;4990108;28;20122;-70
2023/04/24 00:30:21;;;;;;;18.10;12.18;;;;;;;9.05;100.00;99901.56;4999893;28;20084;-71
2023/04/24 00:32:46;;;;;;;15.30;11.43;;;;;;;9.02;100.00;99893.66;5004337;28;20390;-71
2023/04/24 00:35:12;;;;;;;19.00;11.23;;;;;;;9.02;100.00;99890.09;4989772;28;20076;-71
2023/04/24 00:37:37;;;;;;;21.38;11.50;;;;;;;8.99;100.00;99904.75;4988077;28;20034;-71
2023/04/24 00:40:03;;;;;;;21.13;12.60;;;;;;;8.97;100.00;99897.72;4987633;28;20207;-71
2023/04/24 00:42:28;;;;;;;21.55;12.65;;;;;;;8.93;100.00;99895.25;5008305;28;20344;-71
2023/04/24 00:44:54;;;;;;;24.55;13.32;;;;;;;8.93;100.00;99897.97;4990003;28;20194;-71
2023/04/24 00:47:20;;;;;;;20.80;13.50;;;;;;;8.90;100.00;99902.78;5008064;28;20052;-71
2023/04/24 00:49:45;;;;;;;27.98;12.00;;;;;;;8.90;100.00;99900.06;4987977;28;20053;-71
2023/04/24 00:52:12;;;;;;;22.48;13.82;;;;;;;8.87;100.00;99895.78;4989287;28;20038;-71
2023/04/24 00:54:37;;;;;;;30.38;13.48;;;;;;;8.89;100.00;99907.34;4992308;28;20094;-71
2023/04/24 00:57:03;;;;;;;21.60;12.90;;;;;;;8.87;100.00;99901.19;4990346;28;20330;-71
2023/04/24 00:59:29;;;;;;;22.67;13.32;;;;;;;8.84;100.00;99903.28;4989478;28;20061;-71
2023/04/24 01:01:55;;;;;;;23.50;13.55;;;;;;;8.86;100.00;99902.19;4993866;28;20033;-71
2023/04/24 01:04:21;;;;;;;26.85;14.10;;;;;;;8.85;100.00;99902.28;5004655;28;20042;-71
2023/04/24 01:06:48;;;;;;;26.30;14.45;;;;;;;8.85;100.00;99896.84;4989597;28;20494;-71
2023/04/24 01:09:15;;;;;;;22.80;13.55;;;;;;;8.84;100.00;99896.00;5009691;28;20042;-71
2023/04/24 01:11:41;;;;;;;26.27;14.45;;;;;;;8.82;100.00;99895.28;4994344;28;20050;-71
2023/04/24 01:14:07;;;;;;;22.63;13.52;;;;;;;8.82;100.00;99898.00;4988902;28;20050;-72
2023/04/24 01:16:33;;;;;;;24.83;14.40;;;;;;;8.83;100.00;99894.28;4987803;28;20490;-71
2023/04/24 01:19:00;;;;;;;24.50;15.55;;;;;;;8.80;100.00;99891.81;5001085;28;20030;-71
2023/04/24 01:21:29;;;;;;;27.20;13.27;;;;;;;8.80;100.00;99899.09;5007377;28;20030;-72
2023/04/24 01:23:56;;;;;;;26.88;14.15;;;;;;;8.76;100.00;99886.75;4997868;28;20034;-72
2023/04/24 01:26:23;;;;;;;28.00;15.05;;;;;;;8.74;100.00;99896.88;4988642;28;20041;-72
2023/04/24 01:28:48;;;;;;;24.52;14.90;;;;;;;8.72;100.00;99893.41;4989123;28;20406;-72
2023/04/24 01:31:15;;;;;;;23.02;13.90;;;;;;;8.67;100.00;99889.25;4989129;28;20057;-72
2023/04/24 01:33:41;;;;;;;24.00;14.70;;;;;;;8.66;100.00;99897.47;4998497;28;20041;-72
2023/04/24 01:36:09;;;;;;;26.15;14.60;;;;;;;8.63;100.00;99893.19;5004328;28;20036;-71
2023/04/24 01:38:35;;;;;;;23.02;14.45;;;;;;;8.61;100.00;99891.56;4988210;28;20616;-72
2023/04/24 01:41:00;;;;;;;24.10;15.13;;;;;;;8.59;100.00;99898.97;4988862;28;20073;-71
2023/04/24 01:43:26;;;;;;;28.02;16.80;;;;;;;8.56;100.00;99897.34;4988928;28;20034;-71
2023/04/24 01:45:51;;;;;;;29.20;16.35;;;;;;;8.56;100.00;99905.47;4988215;28;20041;-71
2023/04/24 01:48:17;;;;;;;27.65;16.10;;;;;;;8.56;100.00;99902.75;4991367;28;20045;-71
2023/04/24 01:50:42;;;;;;;28.42;17.15;;;;;;;8.57;100.00;99898.22;5003296;28;20050;-72
2023/04/24 01:53:11;;;;;;;29.77;16.48;;;;;;;8.56;100.00;99894.63;4988609;28;20056;-72
2023/04/24 01:55:36;;;;;;;29.55;16.77;;;;;;;8.57;100.00;99890.94;4994464;28;20487;-72
2023/04/24 01:58:02;;;;;;;38.58;18.52;;;;;;;8.57;100.00;99903.63;4986935;28;20057;-71
2023/04/24 02:00:27;;;;;;;34.58;17.70;;;;;;;8.54;100.00;99902.03;4992409;28;20038;-71
2023/04/24 02:02:53;;;;;;;30.80;18.17;;;;;;;8.54;100.00;99896.63;5000912;28;20474;-71
2023/04/24 02:05:18;;;;;;;32.58;17.85;;;;;;;8.54;100.00;99901.19;4986145;28;20045;-72
2023/04/24 02:07:44;;;;;;;36.20;19.83;;;;;;;8.55;100.00;99916.44;4987913;28;20088;-72
2023/04/24 02:10:10;;;;;;;36.05;18.90;;;;;;;8.52;100.00;99908.56;4987226;28;20152;-71
2023/04/24 02:12:36;;;;;;;34.58;19.13;;;;;;;8.50;100.00;99907.81;4988381;28;20506;-71
2023/04/24 02:15:01;;;;;;;31.20;18.40;;;;;;;8.49;100.00;99911.53;4988121;28;20121;-72
2023/04/24 02:17:27;;;;;;;32.90;18.85;;;;;;;8.45;100.00;99905.47;4986619;28;20034;-71
2023/04/24 02:19:52;;;;;;;29.23;18.17;;;;;;;8.44;100.00;99911.88;4987625;28;20089;-71
2023/04/24 02:22:18;;;;;;;31.90;18.73;;;;;;;8.44;100.00;99911.88;4985577;28;20038;-71
2023/04/24 02:24:44;;;;;;;30.23;17.40;;;;;;;8.41;100.00;99920.25;4988810;28;20081;-71
2023/04/24 02:27:10;;;;;;;29.08;16.83;;;;;;;8.37;100.00;99906.06;4988369;28;20044;-71
2023/04/24 02:29:35;;;;;;;35.40;17.63;;;;;;;8.37;100.00;99908.78;4988936;28;20050;-71
2023/04/24 02:32:00;;;;;;;33.53;18.25;;;;;;;8.37;100.00;99916.06;4987545;28;20034;-71
2023/04/24 02:34:26;;;;;;;30.33;17.65;;;;;;;8.36;100.00;99906.16;4987573;28;20093;-71
2023/04/24 02:36:53;;;;;;;31.85;17.33;;;;;;;8.34;100.00;99910.81;4984717;28;20061;-71
2023/04/24 02:39:19;;;;;;;30.08;16.40;;;;;;;8.31;100.00;99908.38;4988141;28;20538;-71
2023/04/24 02:41:44;;;;;;;29.55;15.52;;;;;;;8.29;100.00;99910.31;4987308;28;20058;-71
2023/04/24 02:44:10;;;;;;;31.45;17.25;;;;;;;8.27;100.00;99912.31;4988555;28;20042;-71
2023/04/24 02:46:35;;;;;;;25.88;16.75;;;;;;;8.26;100.00;99900.59;4987067;28;20041;-71
2023/04/24 02:49:00;;;;;;;36.20;18.48;;;;;;;8.24;100.00;99904.41;4996315;28;20049;-71
2023/04/24 02:51:26;;;;;;;32.35;17.75;;;;;;;8.27;100.00;99909.59;4986405;28;20038;-71
2023/04/24 02:53:52;;;;;;;28.80;17.52;;;;;;;8.24;100.00;99888.16;4985784;28;20093;-71
2023/04/24 02:56:17;;;;;;;28.27;17.08;;;;;;;8.24;100.00;99898.97;5000998;28;20502;-71
2023/04/24 02:58:43;;;;;;;29.98;17.05;;;;;;;8.22;100.00;99890.13;4986931;28;20030;-70
2023/04/24 03:01:09;;;;;;;29.33;16.48;;;;;;;8.21;100.00;99889.25;4986711;28;20077;-70
2023/04/24 03:03:35;;;;;;;28.70;17.05;;;;;;;8.18;100.00;99893.06;4992792;28;20092;-70
2023/04/24 03:06:01;;;;;;;29.27;15.82;;;;;;;8.19;100.00;99888.50;4986443;28;20446;-70
2023/04/24 03:08:27;;;;;;;28.15;16.58;;;;;;;8.22;100.00;99900.97;4984399;28;20034;-71
2023/04/24 03:10:52;;;;;;;31.65;16.85;;;;;;;8.21;100.00;99891.97;4986944;28;20030;-71
2023/04/24 03:13:18;;;;;;;28.13;15.85;;;;;;;8.19;100.00;99892.06;4994643;28;20470;-71
2023/04/24 03:15:44;;;;;;;31.95;17.52;;;;;;;8.21;100.00;99896.50;4986303;28;20097;-70
2023/04/24 03:18:10;;;;;;;28.75;15.48;;;;;;;8.21;100.00;99893.78;4989383;28;20038;-70
2023/04/24 03:20:37;;;;;;;34.65;17.00;;;;;;;8.22;100.00;99895.53;4968937;28;20400;-71
2023/04/24 03:23:02;;;;;;;28.08;15.88;;;;;;;8.22;100.00;99895.53;4985372;28;20043;-71
2023/04/24 03:25:28;;;;;;;28.15;17.45;;;;;;;8.23;100.00;99894.56;4986720;28;20104;-71
2023/04/24 03:27:54;;;;;;;29.65;16.20;;;;;;;8.21;100.00;99899.22;4985842;28;20506;-71
2023/04/24 03:30:31;;;;;;;25.58;15.40;;;;;;;8.19;100.00;99888.50;4985411;28;20046;-71
2023/04/24 03:32:59;;;;;;;28.38;16.42;;;;;;;8.20;100.00;99895.66;4985823;28;20481;-71
2023/04/24 03:35:28;;;;;;;27.05;16.13;;;;;;;8.17;100.00;99898.59;4985253;28;20034;-70
2023/04/24 03:37:54;;;;;;;28.33;16.50;;;;;;;8.18;100.00;99894.91;4984900;28;20035;-70
2023/04/24 03:40:52;;;;;;;26.48;15.10;;;;;;;8.16;100.00;99897.75;4978865;28;20052;-70
2023/04/24 03:43:53;;;;;;;24.58;14.65;;;;;;;8.13;100.00;99887.16;4974722;28;20045;-69
2023/04/24 03:46:19;;;;;;;25.35;14.95;;;;;;;8.14;100.00;99883.44;4985278;28;20050;-69
2023/04/24 03:48:51;;;;;;;33.50;16.40;;;;;;;8.14;100.00;99882.59;4985365;28;20038;-69
2023/04/24 03:51:18;;;;;;;27.10;15.88;;;;;;;8.13;100.00;99891.69;4984423;28;20519;-69
2023/04/24 03:53:46;;;;;;;26.70;14.45;;;;;;;8.14;100.00;99886.16;4986170;28;20026;-70
2023/04/24 03:56:14;;;;;;;23.13;14.38;;;;;;;8.15;100.00;99890.59;4999397;28;20038;-69
2023/04/24 03:58:40;;;;;;;23.10;13.52;;;;;;;8.14;100.00;99885.28;4985985;28;20474;-69
2023/04/24 04:01:06;;;;;;;21.40;13.45;;;;;;;8.14;100.00;99886.16;4990643;28;20026;-68
2023/04/24 04:03:37;;;;;;;30.08;14.60;;;;;;;8.15;100.00;99881.59;4986829;28;20487;-69
2023/04/24 04:06:03;;;;;;;26.55;14.50;;;;;;;8.14;100.00;99888.88;4984504;28;20049;-69
2023/04/24 04:08:29;;;;;;;26.15;13.48;;;;;;;8.14;100.00;99890.72;4984772;28;20038;-69
2023/04/24 04:10:54;;;;;;;27.30;14.15;;;;;;;8.11;100.00;99874.69;4984930;28;20037;-69
2023/04/24 04:13:20;;;;;;;25.13;13.80;;;;;;;8.10;100.00;99890.06;4986685;28;20113;-71
2023/04/24 04:15:45;;;;;;;22.08;14.02;;;;;;;8.13;100.00;99900.69;4986468;28;20033;-71
2023/04/24 04:18:11;;;;;;;23.17;13.65;;;;;;;8.10;100.00;99890.06;4985708;28;20130;-71
2023/04/24 04:20:36;;;;;;;23.13;13.75;;;;;;;8.08;100.00;99894.75;4987361;28;20044;-72
2023/04/24 04:23:02;;;;;;;21.30;13.60;;;;;;;8.07;100.00;99895.75;5002981;28;20026;-71
2023/04/24 04:25:44;;;;;;;27.10;13.40;;;;;;;8.03;100.00;99909.66;4989860;28;20038;-71
2023/04/24 04:28:09;;;;;;;25.85;13.90;;;;;;;8.01;100.00;99900.75;4989418;28;20031;-71
2023/04/24 04:30:38;;;;;;;23.55;13.38;;;;;;;8.03;100.00;99898.81;4986745;28;20381;-72
2023/04/24 04:33:03;;;;;;;22.23;12.98;;;;;;;8.02;100.00;99905.19;4993150;28;20697;-72
2023/04/24 04:35:30;;;;;;;23.75;13.52;;;;;;;8.01;100.00;99904.34;5006502;28;20395;-71
2023/04/24 04:37:58;;;;;;;20.30;13.10;;;;;;;8.00;100.00;99899.91;5003996;28;20033;-72
2023/04/24 04:40:28;;;;;;;21.00;13.35;;;;;;;8.01;100.00;99900.75;4989546;28;20042;-72
2023/04/24 04:42:58;;;;;;;23.27;12.05;;;;;;;8.00;100.00;99907.16;4988690;28;20112;-72
2023/04/24 04:45:27;;;;;;;21.02;12.93;;;;;;;8.00;100.00;99908.03;4988666;28;20113;-71
2023/04/24 04:48:17;;;;;;;19.67;12.75;;;;;;;7.99;100.00;99911.72;4984339;28;20167;-71
2023/04/24 04:50:43;;;;;;;20.25;12.35;;;;;;;7.97;100.00;99908.25;5007658;28;20386;-70
2023/04/24 04:53:08;;;;;;;19.38;12.82;;;;;;;7.96;100.00;99914.66;4989865;28;20025;-71
2023/04/24 04:55:37;;;;;;;20.50;11.82;;;;;;;7.95;100.00;99915.66;4991117;28;20057;-71
2023/04/24 04:58:08;;;;;;;18.52;11.10;;;;;;;7.97;100.00;99927.22;5007983;28;20494;-71
2023/04/24 05:00:35;;;;;;;17.65;11.82;;;;;;;7.99;100.00;99929.81;4991195;28;20324;-71
2023/04/24 05:03:03;;;;;;;18.13;12.07;;;;;;;7.98;100.00;99928.09;4987674;28;20030;-70
2023/04/24 05:05:29;;;;;;;22.02;11.65;;;;;;;7.97;100.00;99931.78;4988540;28;20548;-70
2023/04/24 05:07:54;;;;;;;15.20;10.13;;;;;;;7.99;100.00;99930.69;5003530;28;20019;-71
2023/04/24 05:10:20;;;;;;;16.90;11.15;;;;;;;8.00;100.00;99926.13;5002041;28;20037;-71
2023/04/24 05:12:46;;;;;;;15.00;10.20;;;;;;;8.01;100.00;99936.84;4997317;28;20057;-70
2023/04/24 05:15:12;;;;;;;14.02;9.30;;;;;;;8.03;100.00;99931.31;5004287;28;20115;-70
2023/04/24 05:17:39;;;;;;;13.75;9.40;;;;;;;8.02;100.00;99929.56;5001662;28;20519;-70
2023/04/24 05:20:05;;;;;;;14.25;9.68;;;;;;;8.01;100.00;99934.13;4987757;28;20078;-70
2023/04/24 05:22:31;;;;;;;17.23;10.02;;;;;;;7.99;100.00;99930.69;4999432;28;20034;-70
2023/04/24 05:24:57;;;;;;;16.92;10.02;;;;;;;7.99;100.00;99936.09;4986976;28;20540;-70
2023/04/24 05:27:43;;;;;;;11.68;7.43;;;;;;;7.98;100.00;99942.50;5004271;28;20126;-70
2023/04/24 05:30:14;;;;;;;10.55;6.72;;;;;;;8.00;100.00;99955.91;4984885;28;20047;-70
2023/04/24 05:32:39;;;;;;;9.05;5.10;;;;;;;7.98;100.00;99947.94;4999757;28;20037;-70
2023/04/24 05:35:05;;;;;;;8.38;4.70;;;;;;;7.98;100.00;99953.34;4986350;28;20084;-70
2023/04/24 05:37:30;;;;;;;6.40;4.22;;;;;;;7.99;100.00;99949.66;4995573;28;20026;-71
2023/04/24 05:39:56;;;;;;;6.70;3.67;;;;;;;7.99;100.00;99944.22;5000374;28;20517;-70
2023/04/24 05:42:22;;;;;;;5.25;3.60;;;;;;;7.96;100.00;99957.13;4991600;28;20529;-70
2023/04/24 05:44:49;;;;;;;4.75;3.03;;;;;;;7.93;100.00;99956.41;4986963;28;20438;-69
2023/04/24 05:47:15;;;;;;;4.72;2.33;;;;;;;7.92;100.00;99961.91;4988571;28;20046;-70
2023/04/24 05:49:40;;;;;;;5.65;2.88;;;;;;;7.91;100.00;99971.88;4986376;28;20034;-70
2023/04/24 05:52:08;;;;;;;3.17;2.50;;;;;;;7.92;100.00;99979.03;4995198;28;20034;-70
2023/04/24 05:54:34;;;;;;;2.90;2.45;;;;;;;7.90;100.00;99981.00;5001023;28;20030;-70
2023/04/24 05:57:04;;;;;;;5.13;2.30;;;;;;;7.95;100.00;99990.63;5002326;28;20037;-70
2023/04/24 05:59:42;;;;;;;4.97;2.95;;;;;;;7.95;100.00;99998.75;5003768;28;20045;-70
2023/04/24 06:02:07;;;;;;;2.42;2.10;;;;;;;7.94;100.00;99997.88;5000531;28;20035;-70
2023/04/24 06:04:33;;;;;;;5.20;2.50;;;;;;;7.97;100.00;100002.19;4999684;28;20357;-70
2023/04/24 06:06:59;;;;;;;3.60;2.00;;;;;;;7.98;100.00;100009.34;4988053;28;20021;-70
2023/04/24 06:09:25;;;;;;;3.53;2.58;;;;;;;8.01;100.00;100019.94;5004959;28;20133;-70
2023/04/24 06:11:52;;;;;;;5.18;2.50;;;;;;;8.03;100.00;100024.28;5001063;28;20042;-70
2023/04/24 06:14:19;;;;;;;5.07;3.00;;;;;;;8.04;100.00;100026.00;5005608;28;20030;-71
2023/04/24 06:17:07;;;;;;;5.32;2.97;;;;;;;8.06;100.00;100032.16;5006785;28;20512;-70
2023/04/24 06:19:37;;;;;;;3.15;2.38;;;;;;;8.07;100.00;100031.19;4988453;28;20034;-70
2023/04/24 06:22:02;;;;;;;3.47;2.60;;;;;;;8.09;100.00;100037.34;4985199;28;20370;-70
2023/04/24 06:24:29;;;;;;;4.03;3.30;;;;;;;8.12;100.00;100041.69;4986592;28;20116;-70
2023/04/24 06:26:54;;;;;;;6.63;3.08;;;;;;;8.15;100.00;100049.56;4987605;28;20132;-70
2023/04/24 06:29:20;;;;;;;4.75;3.45;;;;;;;8.18;100.00;100050.19;4986434;28;20515;-72
2023/04/24 06:31:45;;;;;;;5.90;3.55;;;;;;;8.19;100.00;100053.78;4987154;28;20061;-71
2023/04/24 06:34:11;;;;;;;5.28;3.80;;;;;;;8.22;100.00;100074.38;4992844;28;20034;-71
2023/04/24 06:36:36;;;;;;;5.32;3.92;;;;;;;8.24;100.00;100081.38;5003546;28;20049;-70
2023/04/24 06:39:02;;;;;;;5.93;4.40;;;;;;;8.23;100.00;100082.38;5007263;28;20044;-71
2023/04/24 06:41:28;;;;;;;5.88;4.30;;;;;;;8.22;100.00;100087.91;4994788;28;20065;-71
2023/04/24 06:43:53;;;;;;;6.35;3.90;;;;;;;8.22;100.00;100088.78;4987705;28;20501;-71
2023/04/24 06:46:21;;;;;;;4.45;3.35;;;;;;;8.23;100.00;100097.78;4985853;28;20038;-71
2023/04/24 06:48:47;;;;;;;5.25;3.88;;;;;;;8.22;100.00;100101.47;4995235;28;20042;-71
2023/04/24 06:51:12;;;;;;;5.40;4.20;;;;;;;8.22;100.00;100113.16;4985904;28;20187;-71
2023/04/24 06:53:38;;;;;;;8.82;5.00;;;;;;;8.23;100.00;100116.75;4986733;28;20022;-71
2023/04/24 06:56:03;;;;;;;7.68;5.53;;;;;;;8.23;100.00;100125.72;4986765;28;20461;-71
2023/04/24 06:58:30;;;;;;;8.55;6.25;;;;;;;8.23;100.00;100114.88;4987166;28;20153;-71
2023/04/24 07:00:55;;;;;;;9.82;6.35;;;;;;;8.18;100.00;100138.75;4994572;28;20080;-71
2023/04/24 07:03:21;;;;;;;15.10;7.55;;;;;;;8.15;100.00;100150.66;5000985;28;20046;-70
2023/04/24 07:05:47;;;;;;;10.48;7.10;;;;;;;8.10;100.00;100160.13;4985558;28;20027;-70
2023/04/24 07:08:13;;;;;;;13.85;7.60;;;;;;;8.05;100.00;100165.00;4998260;28;20121;-71
2023/04/24 07:10:38;;;;;;;14.77;7.90;;;;;;;8.02;100.00;100176.06;5004480;28;20545;-70
2023/04/24 07:13:04;;;;;;;12.35;7.93;;;;;;;7.98;100.00;100180.00;5006208;28;20069;-71
2023/04/24 07:15:29;;;;;;;16.88;10.23;;;;;;;7.93;100.00;100192.03;5006384;28;20048;-70
2023/04/24 07:17:55;;;;;;;15.98;9.13;;;;;;;7.92;100.00;100203.81;5001608;28;20026;-70
2023/04/24 07:20:20;;;;;;;17.80;9.40;;;;;;;7.89;100.00;100206.75;4996298;28;20885;-70
2023/04/24 07:22:46;;;;;;;13.38;8.20;;;;;;;7.88;100.00;100207.75;5006116;28;20020;-72
2023/04/24 07:25:11;;;;;;;15.77;7.93;;;;;;;7.87;100.00;100227.66;5005436;28;20049;-71
2023/04/24 07:27:37;;;;;;;20.35;10.02;;;;;;;7.88;100.00;100231.22;4988928;28;20019;-71
2023/04/24 07:30:06;;;;;;;12.73;7.78;;;;;;;7.88;100.00;100233.91;4985103;28;20471;-71
2023/04/24 07:32:32;;;;;;;16.67;8.82;;;;;;;7.88;100.00;100240.22;4987419;28;20104;-71
2023/04/24 07:34:57;;;;;;;15.65;8.32;;;;;;;7.89;100.00;100255.50;5005399;28;20038;-71
2023/04/24 07:37:23;;;;;;;13.30;7.93;;;;;;;7.88;100.00;100256.47;5005229;28;20029;-70
2023/04/24 07:39:49;;;;;;;13.95;7.85;;;;;;;7.89;100.00;100274.47;4995380;28;20050;-71
2023/04/24 07:42:14;;;;;;;16.48;6.93;;;;;;;7.84;100.00;100259.53;5002339;28;20033;-70
2023/04/24 07:44:40;;;;;;;13.13;7.63;;;;;;;7.88;100.00;100285.38;5006966;28;20022;-70
2023/04/24 07:47:05;;;;;;;20.50;7.35;;;;;;;7.87;100.00;100275.53;5005212;28;20108;-70
2023/04/24 07:49:31;;;;;;;17.60;7.15;;;;;;;7.88;100.00;100288.97;4999337;28;20069;-70
2023/04/24 07:51:56;;;;;;;15.85;7.70;;;;;;;7.91;100.00;100301.41;5000412;28;20107;-70
2023/04/24 07:54:21;;;;;;;16.10;6.70;;;;;;;7.92;100.00;100306.72;4990111;28;20148;-70
2023/04/24 07:56:48;;;;;;;15.68;6.88;;;;;;;7.93;100.00;100310.31;4999849;28;20116;-70
2023/04/24 07:59:13;;;;;;;15.43;6.60;;;;;;;7.91;100.00;100315.81;5008855;28;20562;-70
2023/04/24 08:01:38;;;;;;;9.88;6.20;;;;;;;7.92;100.00;100325.69;4992227;28;20030;-70
2023/04/24 08:04:04;;;;;;;12.88;5.78;;;;;;;7.91;100.00;100334.78;4995944;28;20234;-70
2023/04/24 08:06:30;;;;;;;12.40;6.40;;;;;;;7.92;100.00;100325.69;4997389;28;20077;-70
2023/04/24 08:08:59;;;;;;;14.70;5.82;;;;;;;8.00;100.00;100337.84;4999228;28;20497;-69
2023/04/24 08:11:25;;;;;;;15.70;6.70;;;;;;;8.04;100.00;100345.63;4993070;28;20482;-70
2023/04/24 08:13:51;;;;;;;15.57;5.63;;;;;;;8.05;100.00;100341.94;5005386;28;20089;-70
2023/04/24 08:16:17;;;;;;;16.65;6.05;;;;;;;8.04;100.00;100350.19;5002698;28;20080;-70
2023/04/24 08:18:42;;;;;;;18.73;5.57;;;;;;;8.02;100.00;100349.41;4996673;28;20046;-70
2023/04/24 08:21:07;;;;;;;18.63;5.85;;;;;;;8.06;100.00;100364.50;5006762;28;20014;-70
2023/04/24 08:23:33;;;;;;;15.05;6.20;;;;;;;8.09;100.00;100362.44;5001594;28;20040;-71
2023/04/24 08:25:58;;;;;;;15.13;5.88;;;;;;;8.16;100.00;100368.31;5005140;28;20393;-70
2023/04/24 08:28:25;;;;;;;14.85;6.35;;;;;;;8.21;100.00;100367.97;5002841;28;20092;-70
2023/04/24 08:30:54;;;;;;;19.95;7.00;;;;;;;8.22;100.00;100377.84;4993349;28;20073;-70
2023/04/24 08:33:20;;;;;;;22.10;7.10;;;;;;;8.21;100.00;100376.97;4992064;28;20039;-70
2023/04/24 08:35:46;;;;;;;12.70;5.18;;;;;;;8.25;100.00;100392.03;4991259;28;20092;-70
2023/04/24 08:38:11;;;;;;;17.58;5.55;;;;;;;8.29;100.00;100395.41;5000932;28;20038;-70
2023/04/24 08:40:36;;;;;;;16.48;5.22;;;;;;;8.30;100.00;100406.16;4989012;28;20030;-70
2023/04/24 08:43:03;;;;;;;22.45;6.05;;;;;;;8.31;100.00;100413.28;5003075;28;20030;-70
2023/04/24 08:45:29;;;;;;;17.17;5.95;;;;;;;8.31;100.00;100417.84;4991504;28;20027;-70
2023/04/24 08:47:55;;;;;;;17.33;5.22;;;;;;;8.36;100.00;100421.09;4991938;28;20037;-70
2023/04/24 08:50:22;;;;;;;18.10;4.70;;;;;;;8.37;100.00;100426.44;5003711;28;20038;-70
2023/04/24 08:52:50;;;;;;;18.40;4.47;;;;;;;8.47;100.00;100433.94;4988462;28;20118;-70
2023/04/24 08:55:17;;;;;;;13.88;4.10;;;;;;;8.59;100.00;100430.38;4989170;28;20447;-70
2023/04/24 08:57:45;;;;;;;14.65;3.70;;;;;;;8.74;100.00;100433.81;4997196;28;20426;-70
2023/04/24 09:00:11;;;;;;;11.32;4.15;;;;;;;8.88;100.00;100441.84;4997353;28;20422;-70
2023/04/24 09:02:41;;;;;;;12.48;3.35;;;;;;;8.84;99.75;100443.91;4989077;28;20069;-70
2023/04/24 09:05:07;;;;;;;11.05;3.90;;;;;;;8.82;99.84;100448.56;4988202;28;20030;-70
2023/04/24 09:07:35;;;;;;;17.83;4.40;;;;;;;8.74;99.45;100459.09;4989163;28;20110;-70
2023/04/24 09:10:02;;;;;;;17.90;3.88;;;;;;;8.63;98.31;100467.13;4995145;28;20070;-70
2023/04/24 09:12:27;;;;;;;15.70;3.72;;;;;;;8.52;97.76;100464.28;4988678;28;20081;-70
2023/04/24 09:14:54;;;;;;;12.27;3.20;;;;;;;8.46;98.78;100462.03;4989108;28;20038;-70
2023/04/24 09:17:22;;;;;;;9.85;3.15;;;;;;;8.43;98.49;100468.50;4988845;28;20034;-70
2023/04/24 09:19:48;;;;;;;10.65;2.90;;;;;;;8.53;99.61;100479.56;4988653;28;20081;-70
2023/04/24 09:22:15;;;;;;;8.93;2.80;;;;;;;8.58;98.39;100483.72;4996054;28;20386;-69
2023/04/24 09:24:41;;;;;;;8.20;2.72;;;;;;;8.72;97.57;100476.44;4988938;28;20070;-70
2023/04/24 09:27:07;;;;;;;9.50;2.58;;;;;;;8.96;99.80;100484.69;4988698;28;20383;-69
2023/04/24 09:29:32;;;;;;;11.15;3.25;;;;;;;9.24;99.08;100495.31;4970771;28;20058;-70
2023/04/24 09:31:58;;;;;;;13.15;3.25;;;;;;;9.31;95.89;100493.84;4995446;28;20057;-69
2023/04/24 09:34:25;;;;;;;15.13;3.05;;;;;;;9.33;95.35;100497.34;4996934;28;20053;-69
2023/04/24 09:36:52;;;;;;;16.40;3.92;;;;;;;9.25;93.78;100512.44;4991426;28;20043;-70
2023/04/24 09:39:20;;;;;;;10.07;3.65;;;;;;;9.16;95.44;100511.25;4995725;28;20026;-70
2023/04/24 09:41:54;;;;;;;16.00;3.95;;;;;;;9.05;95.20;100514.75;4992742;28;20033;-70
2023/04/24 09:44:24;;;;;;;11.52;3.45;;;;;;;8.93;93.81;100532.75;4995588;28;20054;-70
2023/04/24 09:47:00;;;;;;;11.63;3.63;;;;;;;8.92;95.89;100524.75;4987697;28;20347;-69
2023/04/24 09:49:37;;;;;;;14.73;3.70;;;;;;;8.90;94.68;100526.69;4998688;28;20073;-69
2023/04/24 09:52:04;;;;;;;10.88;3.03;;;;;;;8.99;94.55;100539.59;5001365;28;20053;-69
2023/04/24 09:54:29;;;;;;;11.40;2.90;;;;;;;9.13;96.90;100534.06;4992109;28;20104;-69
2023/04/24 09:56:55;;;;;;;6.18;2.38;;;;;;;9.33;95.33;100545.34;4997482;28;20478;-70
2023/04/24 09:59:22;;;;;;;11.52;3.13;;;;;;;9.41;93.41;100553.78;4998984;28;20069;-69
2023/04/24 10:01:49;;;;;;;10.10;2.67;;;;;;;9.50;90.71;100560.41;5000320;28;20033;-69
2023/04/24 10:04:25;;;;;;;10.00;2.38;;;;;;;9.53;89.83;100555.63;4994005;28;20428;-69
2023/04/24 10:06:53;;;;;;;9.65;2.60;;;;;;;9.65;90.45;100554.72;4993627;28;20040;-70
2023/04/24 10:09:21;;;;;;;9.35;2.38;;;;;;;9.79;86.05;100564.59;4986263;28;20414;-69
2023/04/24 10:11:49;;;;;;;9.13;2.58;;;;;;;9.84;85.67;100566.94;5003632;28;20620;-69
2023/04/24 10:14:20;;;;;;;4.88;2.03;;;;;;;9.89;85.72;100562.06;4997781;28;20427;-69
2023/04/24 10:16:46;;;;;;;6.60;1.85;;;;;;;9.86;84.29;100571.28;5002103;28;20029;-69
2023/04/24 10:19:13;;;;;;;4.90;2.03;;;;;;;9.81;84.25;100572.63;4998393;28;20080;-69
2023/04/24 10:21:42;;;;;;;5.30;1.60;;;;;;;9.69;83.72;100577.09;4999282;28;20034;-69
2023/04/24 10:24:08;;;;;;;4.65;1.50;;;;;;;9.58;81.52;100569.72;4994532;28;20398;-69
2023/04/24 10:26:34;;;;;;;6.57;1.50;;;;;;;9.52;81.46;100591.03;5001985;28;20069;-69
2023/04/24 10:29:01;;;;;;;7.07;1.48;;;;;;;9.54;82.67;100581.78;5001141;28;20022;-69
2023/04/24 10:31:29;;;;;;;3.85;1.60;;;;;;;9.63;82.09;100588.41;5006139;28;20037;-70
2023/04/24 10:33:55;;;;;;;3.42;1.20;;;;;;;9.70;82.07;100590.56;4995129;28;20569;-69
2023/04/24 10:36:24;;;;;;;3.97;1.27;;;;;;;9.71;81.16;100592.31;4996152;28;20171;-69
2023/04/24 10:38:49;;;;;;;1.67;1.08;;;;;;;9.68;81.88;100595.22;5002126;28;20495;-69
2023/04/24 10:41:19;;;;;;;3.75;1.15;;;;;;;9.63;81.57;100611.00;5002703;28;20374;-69
2023/04/24 10:43:46;;;;;;;2.20;1.20;;;;;;;9.54;81.93;100608.09;5004390;28;20024;-70
2023/04/24 10:46:19;;;;;;;4.20;1.50;;;;;;;9.60;82.43;100607.63;5000999;28;20045;-69
2023/04/24 10:48:54;;;;;;;3.03;1.25;;;;;;;9.73;83.86;100623.91;4995471;28;20038;-69
2023/04/24 10:51:22;;;;;;;4.60;1.33;;;;;;;9.71;82.53;100613.16;4985656;28;20062;-69
2023/04/24 10:53:50;;;;;;;1.27;1.10;;;;;;;9.68;82.32;100616.09;5000068;28;20390;-69
2023/04/24 10:56:16;;;;;;;3.60;1.17;;;;;;;9.65;82.72;100616.31;4988001;28;20049;-69
2023/04/24 10:58:50;;;;;;;2.15;1.13;;;;;;;9.65;82.47;100625.34;4988001;28;20549;-69
2023/04/24 11:01:32;;;;;;;4.22;1.38;;;;;;;9.72;83.88;100623.06;4996703;28;20057;-69
2023/04/24 11:04:03;;;;;;;2.78;1.48;;;;;;;9.75;82.04;100633.72;4988476;28;20053;-69
2023/04/24 11:06:36;;;;;;;3.10;1.80;;;;;;;9.70;83.28;100630.47;4986191;28;20057;-69
2023/04/24 11:09:05;;;;;;;6.85;1.45;;;;;;;9.59;80.60;100652.06;5005734;28;20076;-69
2023/04/24 11:11:32;;;;;;;4.65;1.20;;;;;;;9.52;81.70;100640.78;4993300;28;20057;-69
2023/04/24 11:13:57;;;;;;;5.10;1.08;;;;;;;9.57;83.09;100646.75;5000302;28;20030;-68
2023/04/24 11:16:33;;;;;;;5.30;1.17;;;;;;;9.70;82.24;100644.03;4995223;28;20045;-69
2023/04/24 11:19:06;;;;;;;2.60;1.00;;;;;;;9.74;82.72;100645.53;4998071;28;20049;-70
2023/04/24 11:21:39;;;;;;;2.92;1.02;;;;;;;9.80;82.98;100639.66;4994137;28;20049;-69